Airfield :
LOGIN :

Register | Disclaimer

   EN    FR    IT 

 










Legend :    VFR   Marginal VFR   IFR   Intensive IFR   Very Intensive IFR
Visi :
Ceiling :
>= 8 km
>= 3000ft
5 to 8 km
1000 to 3000 ft
1500m to 5 km
500 to 1000 ft
800 to 1500m
200 to 500 ft
< 800m
< 200 ft
Symbols :   Thunderstorms  Fog  Heavy snow  Heavy precipitations  Wind > 20 kt
SIGMETs :     Misc.  Thunderstorms  Icing  Turbulence  Mountain Waves  Volcanic Ashes






- Airport Elevation : 209 ft
- IATA code : CLY


LFKC - Calvi

CURRENT METAR :
  • 281930Z AUTO 07010KT 040V140 9999 -RA FEW031/// BKN082/// OVC220/// ///TCU 14/11 Q1007

EXPIRED METARs :
  • 281900Z AUTO 07009KT 040V100 9999 -RA FEW044/// SCT070/// BKN088/// ///CB 14/12 Q1007 NOSIG
  • 281830Z AUTO 03007KT 340V050 9999 -RA SCT024/// SCT036/// BKN056/// ///TCU 14/12 Q1008 TEMPO BKN025 SCT030CB BKN110
  • 281800Z AUTO 35006KT 290V020 9999 -RA FEW025/// BKN032/// BKN056/// ///CB 15/12 Q1008 BECMG 06020G30KT
  • 281730Z AUTO 36007KT 290V040 9999 -RA FEW031/// SCT064/// BKN078/// ///CB 15/12 Q1008 BECMG 06020G30KT
  • 281700Z AUTO 31002KT 9999 -RA BKN078 BKN094 BKN160 14/12 Q1008 TEMPO BKN025 SCT030CB BKN110 BECMG 06020G30KT

TAF AMD TAF LFKC
Valid from the 28 at 18:00 until the 29 at 15:00 UTC


281802Z 2818/2915 01004KT 9999 SCT030 BKN100 TX17/2912Z TN10/2903Z
TEMPO 2818/2822 -RA BKN025 SCT030CB BKN110
BECMG 2901/2903 01015G25KT
BECMG 2908/2911 02010KT CAVOK
ATIS : +33 4 95 65 82 49



MET'MAP, your aeronautical weather chart ! - Copyright ORBIFLY December 2007 - Disclaimer

ORBIFLY MET'MAP TEAM :

Programming & Development : Alexandra Zaïnal
Concept & original design : Baudouin d'Aumeries
Assistance for programming : Marc-Olivier Méhu
Technical & hardware support : Manuel Goepfert

Contact : metmap@orbifly.com




SOURCES & CREDITS :

   NOAA